Los Gatos, CA (95030)

5:28 AM PST on December 05, 2016 (GMT -0800)
Los Gatos Euclid Ave. | | Change Station

Elev 423 ft 37.22 °N, 121.99 °W | Updated 3 minutes ago

Overcast
Overcast
49.5 °F
Feels Like 50 °F
N
0.0
Wind Variable Wind from West
Gusts 0.0 mph

Today
High -- | Low -- °F
--% Chance of Precip.
Yesterday
High -- | Low -- °F
Precip. -- in
Pressure 30.09 in
Visibility 10.0 miles
Clouds Overcast 1500 ft
Windchill 50 °F
Dew Point 47 °F
Humidity 91%
Rainfall 0.00 in
Snow Depth Not available.
7:07 AM 4:50 PM
Waxing Crescent, 31% visible
SPECI KSJC 051309Z AUTO 33004KT 10SM OVC015 12/09 A3009 RMK AO2 T01170094
Pressure 30.09 in
Visibility 10.0 miles
Clouds Overcast 1500 ft
Windchill 50 °F
Dew Point 47 °F
Humidity 91%
Rainfall 0.00 in
Snow Depth Not available.
7:07 AM 4:50 PM
Waxing Crescent, 31% visible
SPECI KSJC 051309Z AUTO 33004KT 10SM OVC015 12/09 A3009 RMK AO2 T01170094

10-Day Weather Forecast

Almanac

Astronomy

Dec. 05, 2016 Rise Set
Actual Time
Civil Twilight
Nautical Twilight
Astronomical Twilight
Moon
Length of Visible Light
Length of Day
Tomorrow will be .
, % of the Moon is Illuminated

Today's Extremes

State Highs State Lows

Community

WunderPhotos

Upload Photos

1,955,780 photos uploaded!

WunderBlog® & News

Nearby

Air Quality

  Air Quality AQ Index Pollutant
Not available.

Snow Depth

Station Depth Elevation

Earthquake Activity

City Distance Mag. Time & Date
Minimum magnitude displayed is 2.5.

Coastal Water Temperatures

Place Temperature

Stations

Nearby Weather Stations

Station Location Temp. Windchill Dew Point Humidity Wind Precip. Elev Updated Type
                   

Watches & Warnings

There are currently no watches in effect.